Time;durP1;ratioP1;P1;durP2;ratioP2;P2;SDS_P1;SDS_P2;PMS_P1;PMS_P2;Temp;Humidity;BMP_temperature;BMP_pressure;BME280_temperature;BME280_humidity;BME280_pressure;Samples;Min_cycle;Max_cycle;Signal;HPM_P1;HPM_P2
2022/12/14 00:00:32;;;;;;;61.88;26.48;;;;;;;;;;5108158;28;20079;-71
2022/12/14 00:02:58;;;;;;;64.05;29.35;;;;;;;;;;5071838;28;20052;-71
2022/12/14 00:05:24;;;;;;;58.88;27.90;;;;;;;;;;5091909;28;20063;-71
2022/12/14 00:07:50;;;;;;;60.58;27.77;;;;;;;;;;5073325;28;20067;-72
2022/12/14 00:10:17;;;;;;;63.95;29.80;;;;;;;;;;5099892;28;20036;-71
2022/12/14 00:12:43;;;;;;;55.47;26.83;;;;;;;;;;5086574;28;20126;-71
2022/12/14 00:15:09;;;;;;;54.30;26.20;;;;;;;;;;5110561;28;20173;-71
2022/12/14 00:17:35;;;;;;;56.95;24.95;;;;;;;;;;5069173;28;20056;-72
2022/12/14 00:20:01;;;;;;;57.60;26.20;;;;;;;;;;5109300;28;20047;-72
2022/12/14 00:22:27;;;;;;;56.25;26.27;;;;;;;;;;5092692;28;20047;-71
2022/12/14 00:24:53;;;;;;;53.28;25.08;;;;;;;;;;5109696;28;20048;-71
2022/12/14 00:27:19;;;;;;;66.20;27.17;;;;;;;;;;5110005;28;20111;-71
2022/12/14 00:29:45;;;;;;;58.70;25.75;;;;;;;;;;5109468;28;20415;-71
2022/12/14 00:32:11;;;;;;;50.30;23.85;;;;;;;;;;5095579;28;20052;-72
2022/12/14 00:34:37;;;;;;;57.72;25.50;;;;;;;;;;5110056;28;20059;-72
2022/12/14 00:37:03;;;;;;;57.95;25.70;;;;;;;;;;5107379;28;20075;-71
2022/12/14 00:39:30;;;;;;;56.80;26.27;;;;;;;;;;5090887;28;20043;-71
2022/12/14 00:41:56;;;;;;;51.55;23.45;;;;;;;;;;5110028;28;20051;-69
2022/12/14 00:44:22;;;;;;;54.15;24.33;;;;;;;;;;5090660;28;20044;-70
2022/12/14 00:46:48;;;;;;;55.90;23.60;;;;;;;;;;5113296;28;20059;-71
2022/12/14 00:49:14;;;;;;;52.03;25.05;;;;;;;;;;5114157;28;20048;-70
2022/12/14 00:51:40;;;;;;;53.03;23.65;;;;;;;;;;5096242;28;20044;-70
2022/12/14 00:54:06;;;;;;;47.25;24.25;;;;;;;;;;5113331;28;20131;-70
2022/12/14 00:56:33;;;;;;;56.78;24.23;;;;;;;;;;5103246;28;20093;-72
2022/12/14 00:58:59;;;;;;;48.60;24.15;;;;;;;;;;5079100;28;20571;-72
2022/12/14 01:01:25;;;;;;;50.55;22.23;;;;;;;;;;5113535;28;20039;-70
2022/12/14 01:04:15;;;;;;;49.25;23.67;;;;;;;;;;5109113;28;20047;-71
2022/12/14 01:06:37;;;;;;;48.58;22.88;;;;;;;;;;5111715;28;20047;-70
2022/12/14 01:09:03;;;;;;;50.00;23.17;;;;;;;;;;5112269;28;20463;-69
2022/12/14 01:11:29;;;;;;;48.92;23.63;;;;;;;;;;5112112;28;20039;-70
2022/12/14 01:13:55;;;;;;;50.17;24.65;;;;;;;;;;5102467;28;20063;-70
2022/12/14 01:16:22;;;;;;;48.33;23.60;;;;;;;;;;5109856;28;20044;-70
2022/12/14 01:18:48;;;;;;;45.45;21.60;;;;;;;;;;5095974;28;20070;-70
2022/12/14 01:21:22;;;;;;;49.60;21.80;;;;;;;;;;5114007;28;20043;-70
2022/12/14 01:23:50;;;;;;;43.83;21.63;;;;;;;;;;5113398;28;20047;-72
2022/12/14 01:26:17;;;;;;;47.88;22.13;;;;;;;;;;5103011;28;20048;-70
2022/12/14 01:28:43;;;;;;;40.53;20.20;;;;;;;;;;5093042;28;20078;-71
2022/12/14 01:31:11;;;;;;;50.60;22.90;;;;;;;;;;5109744;28;20130;-70
2022/12/14 01:33:37;;;;;;;44.92;22.42;;;;;;;;;;5091060;28;20044;-71
2022/12/14 01:36:07;;;;;;;46.85;22.33;;;;;;;;;;5105179;28;20043;-70
2022/12/14 01:38:33;;;;;;;45.25;21.88;;;;;;;;;;5112422;28;20044;-70
2022/12/14 01:40:59;;;;;;;43.75;20.63;;;;;;;;;;5112081;28;20150;-70
2022/12/14 01:43:44;;;;;;;44.67;20.52;;;;;;;;;;5095192;28;20071;-70
2022/12/14 01:46:10;;;;;;;43.38;20.65;;;;;;;;;;5089013;28;20067;-70
2022/12/14 01:48:36;;;;;;;45.15;20.45;;;;;;;;;;5113636;28;20035;-71
2022/12/14 01:51:02;;;;;;;45.17;21.13;;;;;;;;;;5092539;28;20104;-71
2022/12/14 01:53:29;;;;;;;41.53;19.02;;;;;;;;;;5109968;28;20046;-71
2022/12/14 01:55:55;;;;;;;47.03;19.38;;;;;;;;;;5111407;28;20185;-70
2022/12/14 01:58:22;;;;;;;44.45;19.63;;;;;;;;;;5111149;28;20075;-70
2022/12/14 02:00:50;;;;;;;47.50;20.65;;;;;;;;;;5110300;28;20101;-70
2022/12/14 02:03:19;;;;;;;45.95;19.83;;;;;;;;;;5111463;28;20071;-71
2022/12/14 02:05:47;;;;;;;42.35;17.98;;;;;;;;;;5107252;28;20489;-71
2022/12/14 02:08:13;;;;;;;39.28;19.45;;;;;;;;;;5088131;28;20438;-70
2022/12/14 02:10:39;;;;;;;39.80;19.23;;;;;;;;;;5112380;28;20044;-69
2022/12/14 02:13:15;;;;;;;43.63;19.30;;;;;;;;;;5076049;28;20078;-71
2022/12/14 02:15:42;;;;;;;41.38;18.90;;;;;;;;;;5110816;28;20126;-70
2022/12/14 02:18:11;;;;;;;42.67;19.92;;;;;;;;;;5106335;28;20050;-70
2022/12/14 02:20:44;;;;;;;48.22;21.75;;;;;;;;;;5094591;28;20051;-69
2022/12/14 02:23:16;;;;;;;44.03;20.40;;;;;;;;;;5112153;28;20048;-70
2022/12/14 02:25:45;;;;;;;42.78;20.10;;;;;;;;;;5101040;28;20082;-70
2022/12/14 02:28:14;;;;;;;51.28;22.83;;;;;;;;;;5112866;28;20043;-70
2022/12/14 02:30:42;;;;;;;46.65;21.90;;;;;;;;;;5112960;28;20078;-71
2022/12/14 02:33:07;;;;;;;50.28;22.75;;;;;;;;;;5089390;28;20567;-70
2022/12/14 02:35:40;;;;;;;40.83;19.45;;;;;;;;;;5108062;28;20130;-70
2022/12/14 02:38:09;;;;;;;45.60;20.50;;;;;;;;;;5090522;28;20400;-70
2022/12/14 02:40:41;;;;;;;48.72;21.98;;;;;;;;;;5112442;28;20050;-70
2022/12/14 02:43:10;;;;;;;43.03;20.77;;;;;;;;;;5099183;28;20051;-70
2022/12/14 02:46:02;;;;;;;48.10;21.17;;;;;;;;;;5089083;28;20062;-70
2022/12/14 02:48:50;;;;;;;48.55;22.45;;;-4.80;99.90;;;;;;5105923;28;20059;-71
2022/12/14 02:51:56;;;;;;;44.80;19.90;;;-5.10;99.90;;;;;;5092512;28;20104;-70
2022/12/14 02:54:29;;;;;;;43.47;18.73;;;;;;;;;;5088314;28;20051;-70
2022/12/14 02:56:59;;;;;;;53.25;24.23;;;;;;;;;;5101580;28;20048;-70
2022/12/14 02:59:26;;;;;;;41.45;18.98;;;;;;;;;;5079407;28;20058;-69
2022/12/14 03:01:52;;;;;;;38.80;17.98;;;;;;;;;;5106763;28;20043;-70
2022/12/14 03:04:19;;;;;;;42.95;19.60;;;;;;;;;;5092795;28;20051;-70
2022/12/14 03:07:08;;;;;;;41.22;19.88;;;;;;;;;;5101438;28;20607;-69
2022/12/14 03:09:34;;;;;;;41.13;20.02;;;;;;;;;;5073616;28;20048;-71
2022/12/14 03:12:03;;;;;;;48.22;22.77;;;;;;;;;;5077742;28;20052;-70
2022/12/14 03:14:36;;;;;;;41.97;18.10;;;;;;;;;;5098960;28;20052;-71
2022/12/14 03:17:16;;;;;;;40.88;18.83;;;;;;;;;;5086760;28;20063;-71
2022/12/14 03:19:48;;;;;;;42.78;18.88;;;;;;;;;;5080530;28;20555;-71
2022/12/14 03:22:18;;;;;;;40.67;18.50;;;;;;;;;;5104990;28;20058;-71
2022/12/14 03:24:48;;;;;;;43.60;19.42;;;;;;;;;;5068694;28;20435;-71
2022/12/14 03:27:23;;;;;;;40.13;19.02;;;;;;;;;;5101697;28;20075;-71
2022/12/14 03:29:54;;;;;;;40.80;18.83;;;;;;;;;;5109559;28;20039;-71
2022/12/14 03:32:22;;;;;;;40.03;17.20;;;;;;;;;;5103120;28;20058;-72
2022/12/14 03:35:00;;;;;;;42.20;18.65;;;;;;;;;;5090057;28;20096;-70
2022/12/14 03:37:29;;;;;;;45.70;19.27;;;;;;;;;;5106622;28;20058;-70
2022/12/14 03:39:56;;;;;;;40.13;17.97;;;;;;;;;;5110968;28;20047;-70
2022/12/14 03:42:31;;;;;;;41.20;18.75;;;;;;;;;;5091244;28;20809;-70
2022/12/14 03:45:02;;;;;;;37.53;18.88;;;;;;;;;;5104341;28;20047;-70
2022/12/14 03:47:51;;;;;;;36.42;18.55;;;;;;;;;;5103709;28;20118;-70
2022/12/14 03:50:20;;;;;;;45.85;18.60;;;;;;;;;;5110884;28;20487;-70
2022/12/14 03:52:56;;;;;;;39.22;18.05;;;;;;;;;;5082588;28;20054;-71
2022/12/14 03:55:29;;;;;;;40.15;18.95;;;;;;;;;;5091029;28;20048;-71
2022/12/14 03:58:11;;;;;;;37.47;17.50;;;;;;;;;;5109487;28;21523;-70
2022/12/14 04:00:43;;;;;;;41.75;18.75;;;;;;;;;;5111283;28;20129;-70
2022/12/14 04:03:19;;;;;;;43.90;18.83;;;;;;;;;;5090010;28;20108;-70
2022/12/14 04:05:48;;;;;;;41.50;17.63;;;;;;;;;;5124135;28;20051;-70
2022/12/14 04:08:17;;;;;;;39.55;17.98;;;;;;;;;;5092517;28;20476;-70
2022/12/14 04:19:19;;;;;;;38.22;17.15;;;;;;;;;;5092785;28;20048;-70
2022/12/14 04:21:51;;;;;;;34.05;17.73;;;;;;;;;;5100652;28;20130;-71
2022/12/14 04:27:13;;;;;;;36.33;16.85;;;;;;;;;;5102753;28;20118;-71
2022/12/14 04:29:55;;;;;;;36.90;17.25;;;;;;;;;;5113619;28;20112;-69
2022/12/14 04:32:33;;;;;;;40.50;17.13;;;;;;;;;;5111719;28;20130;-71
2022/12/14 04:35:14;;;;;;;41.17;18.05;;;;;;;;;;5105831;28;20051;-71
2022/12/14 04:37:43;;;;;;;35.95;16.90;;;;;;;;;;5112250;28;20172;-71
2022/12/14 04:40:11;;;;;;;44.88;18.88;;;;;;;;;;5097707;28;20101;-71
2022/12/14 04:42:44;;;;;;;39.17;17.55;;;;;;;;;;5107928;28;20399;-69
2022/12/14 04:45:16;;;;;;;39.58;18.30;;;;;;;;;;5104454;28;20040;-71
2022/12/14 04:47:45;;;;;;;41.45;18.05;;;;;;;;;;5112297;28;20123;-70
2022/12/14 04:50:24;;;;;;;36.42;18.13;;;;;;;;;;5094538;28;20130;-70
2022/12/14 04:52:54;;;;;;;39.92;17.60;;;;;;;;;;5106133;28;20448;-70
2022/12/14 04:55:20;;;;;;;46.28;19.23;;;;;;;;;;5114545;28;20043;-71
2022/12/14 04:57:49;;;;;;;42.38;19.58;;;;;;;;;;5100945;28;20061;-71
2022/12/14 05:00:16;;;;;;;42.05;18.40;;;;;;;;;;5111114;28;20046;-71
2022/12/14 05:02:54;;;;;;;38.15;18.60;;;;;;;;;;5090674;28;20044;-71
2022/12/14 05:05:40;;;;;;;41.28;18.40;;;;;;;;;;5103676;28;20040;-71
2022/12/14 05:08:25;;;;;;;39.83;18.13;;;;;;;;;;5106352;28;20058;-69
2022/12/14 05:11:00;;;;;;;45.53;18.92;;;;;;;;;;5080845;28;20047;-70
2022/12/14 05:13:37;;;;;;;38.75;17.65;;;;;;;;;;5093652;28;20051;-71
2022/12/14 05:16:03;;;;;;;42.22;18.45;;;;;;;;;;5107175;28;20506;-69
2022/12/14 05:18:29;;;;;;;39.78;17.23;;;;;;;;;;5106866;28;20050;-70
2022/12/14 05:20:55;;;;;;;46.75;19.38;;;;;;;;;;5106599;28;20040;-71
2022/12/14 05:23:21;;;;;;;43.28;19.95;;;;;;;;;;5104807;28;20182;-68
2022/12/14 05:25:47;;;;;;;43.95;20.85;;;;;;;;;;5098829;28;20085;-69
2022/12/14 05:28:13;;;;;;;54.03;21.98;;;;;;;;;;5109880;28;20039;-68
2022/12/14 05:30:39;;;;;;;156.73;63.13;;;;;;;;;;5098811;28;20053;-67
2022/12/14 05:33:05;;;;;;;63.67;26.33;;;;;;;;;;5093594;28;20054;-68
2022/12/14 05:35:31;;;;;;;211.57;81.10;;;;;;;;;;5081592;28;20051;-68
2022/12/14 05:37:57;;;;;;;74.75;34.42;;;;;;;;;;5109887;28;20039;-68
2022/12/14 05:40:23;;;;;;;51.55;22.95;;;;;;;;;;5114359;28;20479;-67
2022/12/14 05:42:49;;;;;;;51.78;22.17;;;;;;;;;;5086998;28;20056;-66
2022/12/14 05:45:15;;;;;;;53.28;23.65;;;;;;;;;;5099491;28;20044;-68
2022/12/14 05:47:41;;;;;;;54.40;24.75;;;;;;;;;;5099042;28;20131;-67
2022/12/14 05:50:08;;;;;;;63.15;23.60;;;;;;;;;;5094002;28;20041;-68
2022/12/14 05:52:34;;;;;;;60.17;25.23;;;;;;;;;;5105465;28;20050;-68
2022/12/14 05:55:00;;;;;;;47.03;21.42;;;;;;;;;;5113949;28;20059;-69
2022/12/14 05:57:26;;;;;;;51.85;21.92;;;;;;;;;;5113880;28;20079;-68
2022/12/14 05:59:52;;;;;;;46.25;21.30;;;;;;;;;;5112455;28;20047;-68
2022/12/14 06:02:18;;;;;;;52.95;23.30;;;;;;;;;;5110557;28;20051;-68
2022/12/14 06:04:44;;;;;;;55.47;23.08;;;;;;;;;;5113851;28;20126;-68
2022/12/14 06:07:11;;;;;;;50.47;23.58;;;;;;;;;;5113613;28;20083;-68
2022/12/14 06:09:37;;;;;;;67.25;32.40;;;;;;;;;;5113812;28;20048;-67
2022/12/14 06:12:03;;;;;;;55.25;24.05;;;;;;;;;;5111551;28;20127;-67
2022/12/14 06:14:29;;;;;;;70.90;31.13;;;;;;;;;;5096433;28;20445;-67
2022/12/14 06:16:55;;;;;;;59.72;26.40;;;;;;;;;;5112464;28;20059;-67
2022/12/14 06:19:21;;;;;;;60.95;25.27;;;;;;;;;;5113929;28;20475;-67
2022/12/14 06:21:47;;;;;;;58.85;23.52;;;;;;;;;;5102915;28;20515;-66
2022/12/14 06:24:14;;;;;;;221.43;70.32;;;;;;;;;;5093138;28;20044;-66
2022/12/14 06:26:40;;;;;;;101.18;38.80;;;;;;;;;;5093153;28;20052;-67
2022/12/14 06:29:06;;;;;;;178.02;60.17;;;;;;;;;;5092788;28;20700;-66
2022/12/14 06:31:33;;;;;;;91.50;34.53;;;;;;;;;;5110678;28;20043;-67
2022/12/14 06:34:00;;;;;;;303.67;94.32;;;;;;;;;;5113302;28;20051;-67
2022/12/14 06:36:28;;;;;;;174.35;54.05;;;;;;;;;;5112779;28;20078;-67
2022/12/14 06:38:55;;;;;;;172.85;54.97;;;;;;;;;;5113006;28;20043;-67
2022/12/14 06:41:21;;;;;;;103.68;37.22;;;;;;;;;;5106221;28;20488;-68
2022/12/14 06:43:47;;;;;;;117.97;38.78;;;;;;;;;;5073491;28;20131;-67
2022/12/14 06:46:15;;;;;;;130.40;40.70;;;;;;;;;;5100131;28;20126;-65
2022/12/14 06:48:41;;;;;;;193.85;57.22;;;;;;;;;;5092653;28;20048;-66
2022/12/14 06:51:07;;;;;;;145.32;51.05;;;;;;;;;;5097353;28;20115;-66
2022/12/14 06:53:34;;;;;;;75.20;30.27;;;;;;;;;;5112944;28;20050;-66
2022/12/14 06:56:09;;;;;;;127.63;51.20;;;;;;;;;;5112324;28;20476;-66
2022/12/14 06:58:35;;;;;;;122.18;47.35;;;;;;;;;;5112763;28;20047;-66
2022/12/14 07:01:06;;;;;;;100.20;40.47;;;;;;;;;;5111441;28;20071;-66
2022/12/14 07:03:32;;;;;;;160.32;60.90;;;;;;;;;;5112958;28;20130;-66
2022/12/14 07:05:58;;;;;;;80.57;33.63;;;;;;;;;;5112134;28;20043;-66
2022/12/14 07:08:25;;;;;;;73.28;26.88;;;;;;;;;;5094564;28;20044;-66
2022/12/14 07:10:51;;;;;;;58.30;24.27;;;;;;;;;;5110108;28;20103;-67
2022/12/14 07:13:17;;;;;;;53.58;22.98;;;;;;;;;;5079233;28;20083;-68
2022/12/14 07:15:44;;;;;;;60.20;24.83;;;;;;;;;;5093469;28;20055;-67
2022/12/14 07:18:11;;;;;;;57.97;25.42;;;;;;;;;;5090842;28;20103;-68
2022/12/14 07:20:37;;;;;;;82.20;32.65;;;;;;;;;;5092118;28;20044;-67
2022/12/14 07:23:03;;;;;;;60.88;27.77;;;;;;;;;;5091793;28;20047;-67
2022/12/14 07:25:29;;;;;;;45.30;20.38;;;;;;;;;;5103158;28;20047;-67
2022/12/14 07:27:55;;;;;;;64.40;27.50;;;;;;;;;;5112259;28;20506;-68
2022/12/14 07:30:21;;;;;;;70.85;30.70;;;;;;;;;;5093805;28;20040;-66
2022/12/14 07:32:47;;;;;;;59.42;24.80;;;;;;;;;;5093300;28;20051;-66
2022/12/14 07:35:13;;;;;;;51.40;22.02;;;;;;;;;;5103376;28;20051;-67
2022/12/14 07:37:39;;;;;;;54.70;23.35;;;;;;;;;;5073590;28;20048;-66
2022/12/14 07:40:05;;;;;;;54.45;23.73;;;;;;;;;;5091651;28;20092;-67
2022/12/14 07:42:31;;;;;;;51.65;22.15;;;;;;;;;;5092064;28;20051;-67
2022/12/14 07:44:59;;;;;;;57.22;23.48;;;;;;;;;;5097204;28;20036;-66
2022/12/14 07:47:28;;;;;;;48.88;20.75;;;;;;;;;;5078463;28;20097;-66
2022/12/14 07:49:54;;;;;;;54.13;21.45;;;;;;;;;;5111888;28;20134;-67
2022/12/14 07:52:20;;;;;;;46.28;19.58;;;;;;;;;;5080386;28;20135;-66
2022/12/14 07:54:47;;;;;;;50.05;19.83;;;;;;;;;;5096840;28;20059;-66
2022/12/14 07:57:13;;;;;;;52.28;20.90;;;;;;;;;;5116477;28;20118;-67
2022/12/14 07:59:39;;;;;;;43.35;19.05;;;;;;;;;;5114929;28;20109;-66
2022/12/14 08:02:05;;;;;;;44.67;19.35;;;;;;;;;;5083836;28;20051;-66
2022/12/14 08:04:33;;;;;;;49.70;20.23;;;;;;;;;;5110711;28;20039;-66
2022/12/14 08:06:59;;;;;;;39.28;17.92;;;;;;;;;;5107059;28;20055;-66
2022/12/14 08:09:26;;;;;;;48.97;21.17;;;;;;;;;;5095797;28;20046;-66
2022/12/14 08:11:54;;;;;;;47.45;19.33;;;;;;;;;;5103248;28;20040;-66
2022/12/14 08:14:20;;;;;;;45.70;19.65;;;;;;;;;;5101746;28;20067;-66
2022/12/14 08:16:47;;;;;;;48.50;19.58;;;;;;;;;;5114933;28;20048;-67
2022/12/14 08:19:13;;;;;;;49.72;20.20;;;;;;;;;;5115855;28;20135;-66
2022/12/14 08:21:40;;;;;;;49.20;20.52;;;;;;;;;;5114969;28;20047;-66
2022/12/14 08:24:06;;;;;;;46.10;18.77;;;;;;;;;;5098341;28;20089;-66
2022/12/14 08:26:32;;;;;;;51.10;21.30;;;;;;;;;;5095565;28;20101;-66
2022/12/14 08:28:58;;;;;;;52.20;20.67;;;;;;;;;;5095161;28;20040;-66
2022/12/14 08:31:26;;;;;;;52.10;21.17;;;;;;;;;;5088013;28;20046;-66
2022/12/14 08:33:53;;;;;;;48.25;19.73;;;;;;;;;;5097312;28;20051;-66
2022/12/14 08:36:21;;;;;;;50.45;20.27;;;;;;;;;;5115639;28;20039;-66
2022/12/14 08:38:51;;;;;;;50.10;20.13;;;;;;;;;;5096872;28;20414;-66
2022/12/14 08:41:17;;;;;;;48.90;20.17;;;;;;;;;;5105328;28;20126;-66
2022/12/14 08:43:43;;;;;;;50.33;19.45;;;;;;;;;;5094994;28;20090;-66
2022/12/14 08:46:10;;;;;;;55.17;22.40;;;;;;;;;;5097136;28;20089;-66
2022/12/14 08:48:37;;;;;;;50.22;20.63;;;;;;;;;;5115306;28;20082;-66
2022/12/14 08:51:07;;;;;;;49.33;22.00;;;;;;;;;;5106751;28;20492;-66
2022/12/14 08:53:33;;;;;;;53.70;22.65;;;;;;;;;;5094579;28;20051;-66
2022/12/14 08:56:03;;;;;;;48.25;21.42;;;;;;;;;;5094658;28;20058;-67
2022/12/14 08:58:29;;;;;;;59.22;22.02;;;;;;;;;;5097309;28;20047;-66
2022/12/14 09:01:03;;;;;;;56.00;23.95;;;;;;;;;;5111404;28;20035;-66
2022/12/14 09:03:29;;;;;;;55.75;22.48;;;;;;;;;;5113037;28;20516;-66
2022/12/14 09:05:55;;;;;;;55.50;21.77;;;;;;;;;;5112896;28;20035;-66
2022/12/14 09:08:21;;;;;;;51.50;22.13;;;;;;;;;;5106886;28;20082;-67
2022/12/14 09:10:51;;;;;;;49.55;22.05;;;;;;;;;;5113124;28;20078;-67
2022/12/14 09:13:17;;;;;;;56.97;23.52;;;;;;;;;;5113974;28;20091;-66
2022/12/14 09:15:43;;;;;;;55.58;22.10;;;;;;;;;;5112784;28;20051;-66
2022/12/14 09:18:09;;;;;;;56.60;22.42;;;;;;;;;;5104869;28;20056;-66
2022/12/14 09:20:35;;;;;;;49.67;21.88;;;;;;;;;;5102417;28;20036;-67
2022/12/14 09:23:01;;;;;;;50.67;19.95;;;;;;;;;;5113586;28;20040;-66
2022/12/14 09:25:27;;;;;;;53.72;20.02;;;;;;;;;;5094293;28;20043;-66
2022/12/14 09:27:53;;;;;;;51.35;22.65;;;;;;;;;;5105722;28;20043;-67
2022/12/14 09:30:19;;;;;;;51.88;21.92;;;;;;;;;;5083896;28;20399;-66
2022/12/14 09:32:46;;;;;;;50.78;20.92;;;;;;;;;;5112219;28;20415;-65
2022/12/14 09:35:15;;;;;;;47.83;19.50;;;;;;;;;;5113331;28;20043;-65
2022/12/14 09:37:41;;;;;;;44.05;19.77;;;;;;;;;;5112142;28;20209;-66
2022/12/14 09:40:07;;;;;;;43.67;18.20;;;;;;;;;;5113455;28;20185;-66
2022/12/14 09:42:36;;;;;;;52.25;20.15;;;;;;;;;;5113506;28;20100;-66
2022/12/14 09:45:02;;;;;;;43.95;18.77;;;;;;;;;;5110086;28;20055;-66
2022/12/14 09:47:35;;;;;;;49.42;17.90;;;;;;;;;;5084977;28;20055;-66
2022/12/14 09:50:12;;;;;;;50.65;19.45;;;;;;;;;;5106074;28;20558;-66
2022/12/14 09:52:52;;;;;;;46.30;19.55;;;;;;;;;;5103588;28;20081;-66
2022/12/14 09:55:21;;;;;;;48.83;20.20;;;;;;;;;;5083520;28;20048;-67
2022/12/14 09:57:47;;;;;;;46.13;20.35;;;;;;;;;;5067759;28;20289;-66
2022/12/14 10:00:17;;;;;;;47.30;18.80;;;;;;;;;;5104849;28;20050;-66
2022/12/14 10:02:49;;;;;;;39.97;19.38;;;;;;;;;;5087168;28;20096;-67
2022/12/14 10:05:51;;;;;;;51.47;20.63;;;;;;;;;;5100003;28;20040;-66
2022/12/14 10:08:39;;;;;;;42.00;17.55;;;;;;;;;;4993409;28;20050;-67
2022/12/14 10:11:10;;;;;;;39.63;18.13;;;;;;;;;;5009267;28;21470;-67
2022/12/14 10:13:54;;;;;;;42.08;17.27;;;-3.50;99.90;;;;;;5009687;28;20068;-68
2022/12/14 10:16:39;;;;;;;47.85;19.58;;;;;;;;;;5007822;28;20061;-66
2022/12/14 10:19:22;;;;;;;37.88;17.60;;;;;;;;;;5006537;28;20041;-67
2022/12/14 10:21:50;;;;;;;40.67;16.80;;;;;;;;;;5008394;28;20133;-67
2022/12/14 10:24:19;;;;;;;36.65;16.73;;;;;;;;;;5012681;28;20047;-66
2022/12/14 10:26:47;;;;;;;40.88;17.77;;;;;;;;;;5004523;28;20133;-66
2022/12/14 10:29:20;;;;;;;40.22;17.98;;;;;;;;;;5009357;28;20057;-67
2022/12/14 10:31:51;;;;;;;40.42;16.88;;;;;;;;;;5006443;28;20434;-66
2022/12/14 10:34:18;;;;;;;36.97;15.68;;;;;;;;;;5013786;28;20042;-66
2022/12/14 10:36:56;;;;;;;45.33;18.00;;;;;;;;;;5010071;28;20136;-65
2022/12/14 10:39:28;;;;;;;44.72;17.48;;;;;;;;;;4993262;28;20053;-65
2022/12/14 10:41:55;;;;;;;38.63;16.83;;;;;;;;;;5028041;28;20063;-65
2022/12/14 10:44:56;;;;;;;33.42;14.15;;;;;;;;;;5109915;28;20043;-65
2022/12/14 10:47:31;;;;;;;31.92;14.55;;;;;;;;;;5025969;28;20141;-66
2022/12/14 10:50:21;;;;;;;33.70;15.32;;;-3.00;99.90;;;;;;5016431;28;20049;-66
2022/12/14 10:52:52;;;;;;;36.58;15.57;;;;;;;;;;5010639;28;20041;-66
2022/12/14 10:55:21;;;;;;;36.65;16.65;;;;;;;;;;5016071;28;20081;-66
2022/12/14 10:57:47;;;;;;;37.80;15.32;;;;;;;;;;5090070;22;20055;-63
2022/12/14 11:00:17;;;;;;;36.75;14.65;;;;;;;;;;5071406;22;20048;-63
2022/12/14 11:02:45;;;;;;;41.20;17.50;;;;;;;;;;5089423;22;20165;-66
2022/12/14 11:05:23;;;;;;;36.35;16.35;;;;;;;;;;5066492;28;20044;-66
2022/12/14 11:07:49;;;;;;;28.38;13.20;;;;;;;;;;5071802;28;20056;-65
2022/12/14 11:10:17;;;;;;;34.42;14.63;;;;;;;;;;5072303;28;20048;-66
2022/12/14 11:13:04;;;;;;;32.47;14.57;;;-1.90;99.90;;;;;;5068516;28;20040;-66
2022/12/14 11:15:39;;;;;;;32.05;15.60;;;;;;;;;;5054073;28;20058;-66
2022/12/14 11:18:08;;;;;;;33.63;15.50;;;;;;;;;;5070501;28;20416;-66
2022/12/14 11:20:34;;;;;;;30.58;13.40;;;;;;;;;;5053191;28;20048;-66
2022/12/14 11:23:19;;;;;;;31.23;14.40;;;;;;;;;;5068281;28;20127;-66
2022/12/14 11:25:46;;;;;;;35.47;15.88;;;;;;;;;;5071572;28;20053;-66
2022/12/14 11:28:29;;;;;;;28.98;13.65;;;;;;;;;;5071432;28;20408;-66
2022/12/14 11:30:57;;;;;;;31.70;14.32;;;;;;;;;;5070408;28;20044;-66
2022/12/14 11:33:26;;;;;;;29.20;14.32;;;;;;;;;;5068925;28;20072;-67
2022/12/14 11:35:52;;;;;;;30.65;13.60;;;;;;;;;;5069880;28;20397;-66
2022/12/14 11:38:18;;;;;;;27.98;13.85;;;;;;;;;;5051442;28;20055;-66
2022/12/14 11:40:45;;;;;;;33.22;14.68;;;;;;;;;;5068702;28;20055;-66
2022/12/14 11:43:29;;;;;;;32.38;14.10;;;;;;;;;;5069624;28;20048;-66
2022/12/14 11:45:56;;;;;;;36.05;15.00;;;;;;;;;;5064553;28;20461;-66
2022/12/14 11:48:23;;;;;;;33.30;15.57;;;;;;;;;;5070356;28;20052;-67
2022/12/14 11:50:51;;;;;;;37.38;17.15;;;;;;;;;;5069376;28;20523;-66
2022/12/14 11:53:18;;;;;;;33.08;15.68;;;;;;;;;;5058898;28;20041;-65
2022/12/14 11:55:50;;;;;;;36.30;16.40;;;;;;;;;;5070559;28;20493;-65
2022/12/14 11:58:42;;;;;;;34.90;15.38;;;;;;;;;;5070463;28;20147;-65
2022/12/14 12:01:13;;;;;;;38.20;16.55;;;;;;;;;;5047334;28;20508;-65
2022/12/14 12:03:47;;;;;;;33.22;15.10;;;;;;;;;;5051987;28;20084;-65
2022/12/14 12:06:15;;;;;;;37.05;16.08;;;;;;;;;;5070500;28;20044;-65
2022/12/14 12:08:43;;;;;;;31.00;15.60;;;;;;;;;;5069361;28;20086;-65
2022/12/14 12:11:17;;;;;;;36.60;17.42;;;;;;;;;;5052949;28;20087;-65
2022/12/14 12:13:46;;;;;;;33.92;16.40;;;;;;;;;;5068252;28;20055;-65
2022/12/14 12:16:16;;;;;;;35.85;16.50;;;;;;;;;;5036254;28;20061;-66
2022/12/14 12:19:01;;;;;;;35.35;16.00;;;;;;;;;;5051326;28;20044;-65
2022/12/14 12:21:28;;;;;;;35.38;15.02;;;;;;;;;;5068665;28;20110;-65
2022/12/14 12:23:54;;;;;;;37.67;16.20;;;;;;;;;;5051087;28;20059;-66
2022/12/14 12:26:39;;;;;;;28.63;14.25;;;;;;;;;;5057794;28;20053;-65
2022/12/14 12:29:39;;;;;;;25.77;13.80;;;0.00;99.90;;;;;;5067968;28;20037;-66
2022/12/14 12:32:20;;;;;;;31.02;14.73;;;;;;;;;;5026002;28;20071;-66
2022/12/14 12:34:49;;;;;;;31.30;14.90;;;;;;;;;;5048955;28;20498;-65
2022/12/14 12:37:17;;;;;;;31.00;14.77;;;;;;;;;;5028800;28;20053;-65
2022/12/14 12:39:46;;;;;;;30.48;14.90;;;;;;;;;;5054677;28;20549;-67
2022/12/14 12:42:19;;;;;;;25.58;12.82;;;;;;;;;;5074178;28;20044;-66
2022/12/14 12:45:05;;;;;;;29.63;14.25;;;;;;;;;;5073112;28;20146;-67
2022/12/14 12:47:33;;;;;;;27.17;13.63;;;;;;;;;;5074123;28;20584;-66
2022/12/14 12:50:05;;;;;;;27.90;12.98;;;;;;;;;;5056157;28;20056;-66
2022/12/14 12:52:34;;;;;;;31.30;13.63;;;;;;;;;;5056657;28;20101;-66
2022/12/14 12:55:02;;;;;;;29.67;14.57;;;;;;;;;;5074309;28;20044;-66
2022/12/14 12:57:32;;;;;;;27.40;13.20;;;;;;;;;;5055671;28;20051;-67
2022/12/14 12:59:59;;;;;;;34.38;15.45;;;;;;;;;;5073870;28;20052;-66
2022/12/14 13:02:35;;;;;;;28.15;14.05;;;;;;;;;;5074045;28;20143;-67
2022/12/14 13:05:03;;;;;;;29.45;14.85;;;;;;;;;;5056497;28;20048;-67
2022/12/14 13:07:36;;;;;;;26.73;12.77;;;;;;;;;;5074306;28;20045;-67
2022/12/14 13:10:04;;;;;;;27.10;12.25;;;;;;;;;;5073604;28;20404;-67
2022/12/14 13:12:34;;;;;;;25.25;11.38;;;;;;;;;;5056341;28;20064;-67
2022/12/14 13:15:01;;;;;;;28.38;13.30;;;;;;;;;;5065299;28;20412;-67
2022/12/14 13:17:41;;;;;;;24.83;12.75;;;;;;;;;;5056703;28;20071;-67
2022/12/14 13:20:15;;;;;;;23.33;11.35;;;;;;;;;;5039173;28;20179;-67
2022/12/14 13:22:42;;;;;;;22.98;11.43;;;;;;;;;;5073680;28;20056;-67
2022/12/14 13:25:13;;;;;;;23.02;10.85;;;;;;;;;;5073722;28;20076;-68
2022/12/14 13:27:48;;;;;;;25.38;11.45;;;;;;;;;;5055400;28;20064;-67
2022/12/14 13:30:28;;;;;;;21.90;10.15;;;;;;;;;;5073502;28;20109;-68
2022/12/14 13:32:55;;;;;;;21.58;10.80;;;;;;;;;;5053559;28;20049;-70
2022/12/14 13:35:33;;;;;;;22.20;10.98;;;;;;;;;;5044524;28;20095;-69
2022/12/14 13:38:14;;;;;;;21.45;11.15;;;;;;;;;;5071530;28;20048;-66
2022/12/14 13:40:56;;;;;;;18.75;8.68;;;;;;;;;;5037390;28;20400;-68
2022/12/14 13:43:22;;;;;;;19.08;9.65;;;;;;;;;;5058289;28;20048;-68
2022/12/14 13:45:48;;;;;;;22.98;11.80;;;;;;;;;;5025404;28;20111;-68
2022/12/14 13:48:27;;;;;;;22.40;11.52;;;;;;;;;;5030984;28;20053;-68
2022/12/14 13:50:59;;;;;;;22.60;11.02;;;;;;;;;;5048494;28;20052;-68
2022/12/14 13:53:28;;;;;;;23.20;12.10;;;;;;;;;;5054607;28;20056;-68
2022/12/14 13:55:55;;;;;;;26.98;12.48;;;;;;;;;;5054133;28;20055;-69
2022/12/14 13:58:27;;;;;;;23.27;11.05;;;;;;;;;;5069179;28;20055;-69
2022/12/14 14:00:59;;;;;;;21.52;11.10;;;;;;;;;;5069909;28;20135;-68
2022/12/14 14:03:25;;;;;;;;;;;;;;;;;;5066848;28;20501;-69
2022/12/14 14:05:55;;;;;;;19.33;9.73;;;;;;;;;;5054855;28;19927;-69
2022/12/14 14:08:28;;;;;;;21.85;10.85;;;;;;;;;;5071004;28;20503;-70
2022/12/14 14:10:54;;;;;;;20.23;10.30;;;;;;;;;;5051407;28;20048;-69
2022/12/14 14:13:29;;;;;;;17.65;8.57;;;;;;;;;;5046614;28;20110;-69
2022/12/14 14:16:08;;;;;;;19.63;9.35;;;;;;;;;;5038797;28;20061;-69
2022/12/14 14:18:36;;;;;;;20.40;9.48;;;;;;;;;;5066189;28;20049;-69
2022/12/14 14:21:20;;;;;;;19.38;8.02;;;;;;;;;;5070156;28;20050;-69
2022/12/14 14:23:52;;;;;;;17.52;8.77;;;;;;;;;;5052513;28;20072;-68
2022/12/14 14:26:40;;;;;;;19.67;10.38;;;;;;;;;;5091579;22;20057;-70
2022/12/14 14:29:06;;;;;;;20.80;10.23;;;;;;;;;;5070538;22;20090;-69
2022/12/14 14:31:47;;;;;;;19.27;10.40;;;;;;;;;;5054666;28;20087;-70
2022/12/14 14:34:36;;;;;;;18.33;9.70;;;;;;;;;;5038420;28;20047;-69
2022/12/14 14:37:21;;;;;;;20.17;9.60;;;;;;;;;;5044758;28;20055;-69
2022/12/14 14:40:05;;;;;;;20.63;9.52;;;;;;;;;;5061090;28;20102;-69
2022/12/14 14:42:39;;;;;;;16.95;9.43;;;;;;;;;;5053414;28;20056;-68
2022/12/14 14:45:06;;;;;;;25.25;10.93;;;;;;;;;;5068731;28;20048;-69